Sunday, May 27, 2018, 5:53 PM GMT
Back to Local

CWQH, Lennoxville

Location: , , Canada Lat: 45.367
Local Time: 5:53 PM GMT (17:53 GMT) Lon: -71.817
Time Zone: GMT Elev: 593 ft

Show me the last for .
Show Coded

Time T Td Feel RH Dir Speed Gust Alt SLP Vis Weather Sky Remarks
2018-05-27 17:00 67 48 - 51 150° 10 - - - 0 None
2018-05-27 16:00 65 50 - 56 130° 9 - - - 0 Peak wind: 21 mph (19 kts) from 140° at 06 min
2018-05-27 15:00 65 49 - 56 130° 14 20 - - 0 Peak wind: 20 mph (18 kts) from 140° at 21 min
2018-05-27 14:00 62 49 - 61 130° 8 - - - 0 Peak wind: 19 mph (17 kts) from 140° at 33 min
2018-05-27 13:00 61 46 - 56 140° 12 17 - - 0 None
2018-05-27 12:00 60 43 - 54 140° 12 20 - - 0 Peak wind: 19 mph (17 kts) from 130° at 54 min
2018-05-27 11:00 58 41 - 53 130° 5 - - - 0 None
2018-05-27 10:00 52 40 - 63 50° 5 - - - 0 None
2018-05-27 09:00 48 39 45 70 30° 8 - - - 0 None
2018-05-27 08:00 49 39 44 69 40° 10 - - - 0 None
2018-05-27 07:00 49 40 46 69 50° 8 - - - 0 None
2018-05-27 06:00 49 42 46 75 60° 8 - - - 0 None
2018-05-27 05:00 51 42 - 71 90° 3 - - - 0 None
2018-05-27 04:00 53 43 - 68 50° 9 - - - 0 None
2018-05-27 03:00 55 44 - 65 50° 8 - - - 0 None
2018-05-27 02:00 58 44 - 60 50° 9 - - - 0 None
2018-05-27 01:00 62 42 - 47 40° 7 - - - 0 None
2018-05-27 00:00 66 41 - 39 40° 7 - - - 0 None
2018-05-26 23:00 70 38 - 30 360° 6 - - - 0 None
2018-05-26 22:00 73 34 - 24 330° 10 - - - 0 None
2018-05-26 21:00 73 34 - 24 320° 10 - - - 0 None
2018-05-26 20:00 73 38 - 28 330° 12 - - - 0 None
2018-05-26 19:00 74 50 76 41 300° 8 - - - 0 None
2018-05-26 18:00 71 55 76 58 330° 9 - - - 0 1-hr Precip Total: 0.04"

Support USWX by starting your Amazon purchase here.